KBIH/BIH METAR and TAF weather

Enter ICAO airport designator
Station Type Date Time Source
KBIH METAR 2020/07/11 00:56 UTC NOAA

KBIH 110056Z AUTO 15013KT 10SM CLR 38/M07 A3003 RMK AO2 SLP118 T03781072


Station Type Date Time Source
KBIH Decoded METAR 2020/07/11 00:56 UTC NOAA

BISHOP AIRPORT, CA, United States (KBIH) 37-22N 118-22W 1253M
Jul 10, 2020 - 08:56 PM EDT / 2020.07.11 0056 UTC
Wind: from the SSE (150 degrees) at 15 MPH (13 KT):0
Visibility: 10 mile(s):0
Sky conditions: clear
Temperature: 100.0 F (37.8 C)
Dew Point: 19.0 F (-7.2 C)
Relative Humidity: 5%
Pressure (altimeter): 30.03 in. Hg (1016 hPa)
ob: KBIH 110056Z AUTO 15013KT 10SM CLR 38/M07 A3003 RMK AO2 SLP118 T03781072
cycle: 1

Station Type Date Time Source
KBIH TAF 2020/07/10 18:30 UTC NOAA

TAF KBIH 101727Z 1018/1118 VRB05KT P6SM SCT250
FM102000 16011G19KT P6SM SCT250
FM110200 15010KT P6SM FEW150
FM110800 33006KT P6SM FEW150
FM111400 VRB05KT P6SM FEW150

Example: see airport list